createdAt,value
2022-10-25T00:01:25.165Z,13.15
2022-10-25T00:03:54.145Z,13.14
2022-10-25T00:06:22.882Z,13.12
2022-10-25T00:08:51.496Z,13.10
2022-10-25T00:11:24.111Z,13.21
2022-10-25T00:13:53.348Z,13.11
2022-10-25T00:16:24.357Z,13.19
2022-10-25T00:18:53.319Z,13.10
2022-10-25T00:21:22.345Z,13.15
2022-10-25T00:23:52.458Z,13.12
2022-10-25T00:26:23.947Z,13.18
2022-10-25T00:28:55.285Z,13.07
2022-10-25T00:31:24.836Z,13.04
2022-10-25T00:33:53.392Z,13.03
2022-10-25T00:36:24.357Z,13.05
2022-10-25T00:38:53.731Z,13.02
2022-10-25T00:41:26.042Z,13.07
2022-10-25T00:43:55.829Z,12.98
2022-10-25T00:46:28.464Z,12.93
2022-10-25T00:49:02.450Z,12.96
2022-10-25T00:51:36.114Z,12.88
2022-10-25T00:54:04.271Z,12.75
2022-10-25T00:56:37.403Z,12.90
2022-10-25T00:59:12.035Z,12.98
2022-10-25T01:01:42.273Z,12.89
2022-10-25T01:04:15.039Z,12.82
2022-10-25T01:06:46.998Z,12.75
2022-10-25T01:09:18.598Z,12.85
2022-10-25T01:11:48.622Z,12.59
2022-10-25T01:14:18.490Z,12.61
2022-10-25T01:16:55.391Z,12.83
2022-10-25T01:19:44.859Z,12.94
2022-10-25T01:22:17.816Z,12.76
2022-10-25T01:25:31.163Z,12.71
2022-10-25T01:28:08.158Z,12.52
2022-10-25T01:31:10.926Z,12.83
2022-10-25T01:33:44.298Z,12.49
2022-10-25T01:36:18.245Z,12.73
2022-10-25T01:38:52.339Z,12.74
2022-10-25T01:41:26.415Z,12.41
2022-10-25T01:44:06.959Z,12.61
2022-10-25T01:46:45.692Z,12.71
2022-10-25T01:49:20.899Z,12.71
2022-10-25T01:51:49.533Z,12.66
2022-10-25T01:54:21.267Z,12.50
2022-10-25T01:57:02.060Z,12.55
2022-10-25T01:59:59.355Z,12.70
2022-10-25T02:02:34.552Z,12.59
2022-10-25T02:05:10.970Z,12.62
2022-10-25T02:07:43.036Z,12.38
2022-10-25T02:10:18.174Z,12.49
2022-10-25T02:12:56.371Z,12.49
2022-10-25T02:15:32.539Z,12.30
2022-10-25T02:18:06.438Z,12.50
2022-10-25T02:20:37.424Z,12.53
2022-10-25T02:23:07.709Z,12.16
2022-10-25T02:25:39.064Z,12.46
2022-10-25T02:28:10.406Z,12.51
2022-10-25T02:30:41.699Z,12.50
2022-10-25T02:33:12.406Z,12.47
2022-10-25T02:35:41.056Z,12.45
2022-10-25T02:38:10.341Z,12.42
2022-10-25T02:40:39.155Z,12.41
2022-10-25T02:43:07.608Z,12.43
2022-10-25T02:45:35.954Z,12.34
2022-10-25T02:48:04.391Z,12.31
2022-10-25T02:50:34.678Z,12.35
2022-10-25T02:53:03.017Z,11.95
2022-10-25T02:55:31.331Z,12.28
2022-10-25T02:58:00.382Z,12.22
2022-10-25T03:00:29.828Z,12.26
2022-10-25T03:02:59.007Z,12.17
2022-10-25T03:05:27.750Z,12.15
2022-10-25T03:07:57.572Z,11.83
2022-10-25T03:10:25.992Z,12.13
2022-10-25T03:12:54.508Z,12.21
2022-10-25T03:15:22.933Z,12.15
2022-10-25T03:17:51.230Z,12.07
2022-10-25T03:20:19.615Z,12.11
2022-10-25T03:22:47.938Z,12.12
2022-10-25T03:25:18.059Z,12.09
2022-10-25T03:27:47.053Z,12.11
2022-10-25T03:30:16.965Z,11.84
2022-10-25T03:32:45.266Z,12.12
2022-10-25T03:35:13.701Z,12.10
2022-10-25T03:37:42.019Z,12.13
2022-10-25T03:40:11.711Z,12.14
2022-10-25T03:42:41.739Z,12.25
2022-10-25T03:45:11.202Z,12.13
2022-10-25T03:47:40.076Z,12.04
2022-10-25T03:50:09.572Z,12.07
2022-10-25T03:52:37.911Z,12.10
2022-10-25T03:55:07.271Z,12.16
2022-10-25T03:57:35.912Z,12.17
2022-10-25T04:00:06.235Z,12.16
2022-10-25T04:02:34.625Z,11.78
2022-10-25T04:05:03.378Z,12.11
2022-10-25T04:07:31.719Z,12.13
2022-10-25T04:10:00.038Z,12.10
2022-10-25T04:12:28.287Z,12.02
2022-10-25T04:14:57.018Z,12.12
2022-10-25T04:17:26.881Z,11.80
2022-10-25T04:19:55.370Z,12.14
2022-10-25T04:22:23.761Z,12.19
2022-10-25T04:24:53.159Z,12.23
2022-10-25T04:27:21.488Z,12.08
2022-10-25T04:29:49.798Z,12.18
2022-10-25T04:34:53.311Z,11.93
2022-10-25T04:37:21.672Z,11.65
2022-10-25T04:39:50.359Z,12.01
2022-10-25T04:42:19.704Z,12.05
2022-10-25T04:44:48.470Z,11.92
2022-10-25T04:47:16.796Z,12.04
2022-10-25T04:49:45.257Z,12.03
2022-10-25T04:52:15.042Z,12.14
2022-10-25T04:54:43.339Z,11.99
2022-10-25T04:57:11.688Z,11.86
2022-10-25T04:59:40.070Z,11.93
2022-10-25T05:02:08.511Z,11.89
2022-10-25T05:04:36.879Z,11.87
2022-10-25T05:07:05.315Z,11.72
2022-10-25T05:09:35.366Z,11.83
2022-10-25T05:12:03.667Z,11.77
2022-10-25T05:14:32.315Z,11.86
2022-10-25T05:17:01.099Z,11.82
2022-10-25T05:19:29.540Z,11.83
2022-10-25T05:21:57.903Z,11.83
2022-10-25T05:24:26.602Z,11.78
2022-10-25T05:26:56.898Z,11.85
2022-10-25T05:29:25.880Z,11.89
2022-10-25T05:31:54.474Z,11.85
2022-10-25T05:34:23.007Z,11.79
2022-10-25T05:36:51.670Z,11.64
2022-10-25T05:39:20.042Z,11.76
2022-10-25T05:41:49.826Z,11.77
2022-10-25T05:44:19.660Z,11.41
2022-10-25T05:46:47.982Z,11.67
2022-10-25T05:49:16.369Z,11.74
2022-10-25T05:51:44.761Z,11.70
2022-10-25T05:54:14.471Z,11.68
2022-10-25T05:56:44.120Z,11.69
2022-10-25T05:59:14.816Z,11.52
2022-10-25T06:01:46.414Z,11.69
2022-10-25T06:04:15.506Z,11.67
2022-10-25T06:06:45.579Z,11.64
2022-10-25T06:09:14.911Z,11.62
2022-10-25T06:11:43.642Z,11.61
2022-10-25T06:14:12.750Z,11.67
2022-10-25T06:16:41.214Z,11.68
2022-10-25T06:19:12.123Z,11.68
2022-10-25T06:21:40.595Z,11.74
2022-10-25T06:24:10.617Z,11.59
2022-10-25T06:26:38.972Z,11.72
2022-10-25T06:29:07.426Z,11.33
2022-10-25T06:31:35.923Z,11.74
2022-10-25T06:34:04.853Z,11.76
2022-10-25T06:36:34.623Z,11.80
2022-10-25T06:39:05.247Z,11.85
2022-10-25T06:41:37.282Z,11.79
2022-10-25T06:44:07.431Z,11.85
2022-10-25T06:47:04.336Z,11.82
2022-10-25T06:49:25.998Z,11.80
2022-10-25T06:51:55.907Z,11.92
2022-10-25T06:54:25.700Z,11.87
2022-10-25T06:56:54.073Z,11.92
2022-10-25T06:59:22.459Z,11.85
2022-10-25T07:01:51.021Z,11.89
2022-10-25T07:04:19.653Z,11.96
2022-10-25T07:06:50.156Z,11.81
2022-10-25T07:09:23.005Z,11.85
2022-10-25T07:11:51.340Z,11.80
2022-10-25T07:14:20.118Z,11.80
2022-10-25T07:16:48.423Z,11.73
2022-10-25T07:19:16.814Z,11.90
2022-10-25T07:21:45.336Z,11.82
2022-10-25T07:24:13.850Z,11.83
2022-10-25T07:26:43.871Z,11.92
2022-10-25T07:29:12.277Z,11.85
2022-10-25T07:31:44.735Z,11.86
2022-10-25T07:34:15.508Z,11.57
2022-10-25T07:36:44.119Z,11.87
2022-10-25T07:39:12.418Z,11.86
2022-10-25T07:41:40.818Z,11.88
2022-10-25T07:44:15.939Z,11.92
2022-10-25T07:46:45.207Z,11.93
2022-10-25T07:49:13.975Z,11.76
2022-10-25T07:51:42.723Z,12.02
2022-10-25T07:54:11.605Z,12.02
2022-10-25T07:56:39.892Z,11.95
2022-10-25T07:59:09.695Z,12.06
2022-10-25T08:01:38.135Z,12.09
2022-10-25T08:04:06.544Z,12.19
2022-10-25T08:06:36.344Z,12.13
2022-10-25T08:09:14.632Z,12.21
2022-10-25T08:11:48.911Z,12.30
2022-10-25T08:14:19.261Z,12.33
2022-10-25T08:16:48.248Z,12.27
2022-10-25T08:19:16.651Z,12.33
2022-10-25T08:21:44.956Z,12.39
2022-10-25T08:24:13.797Z,12.37
2022-10-25T08:26:42.187Z,12.18
2022-10-25T08:29:10.675Z,12.40
2022-10-25T08:31:40.458Z,12.23
2022-10-25T08:34:09.066Z,12.52
2022-10-25T08:36:37.940Z,12.38
2022-10-25T08:39:06.323Z,12.40
2022-10-25T08:41:48.404Z,12.49
2022-10-25T08:44:24.719Z,12.57
2022-10-25T08:47:01.003Z,12.59
2022-10-25T08:49:37.791Z,12.61
2022-10-25T08:52:08.489Z,12.72
2022-10-25T08:54:39.883Z,12.60
2022-10-25T08:57:17.021Z,12.62
2022-10-25T08:59:51.234Z,12.54
2022-10-25T09:02:26.587Z,12.61
2022-10-25T09:04:55.353Z,12.62
2022-10-25T09:08:10.149Z,12.71
2022-10-25T09:10:49.575Z,12.63
2022-10-25T09:13:27.066Z,12.49
2022-10-25T09:16:05.385Z,12.54
2022-10-25T09:18:42.195Z,12.52
2022-10-25T09:21:22.455Z,12.55
2022-10-25T09:24:00.679Z,12.51
2022-10-25T09:26:43.332Z,12.20
2022-10-25T09:29:22.423Z,12.56
2022-10-25T09:31:55.210Z,12.65
2022-10-25T09:34:26.246Z,11.61
2022-10-25T09:37:00.830Z,12.44
2022-10-25T09:39:38.924Z,12.45
2022-10-25T09:42:15.293Z,12.47
2022-10-25T09:44:48.190Z,12.44
2022-10-25T09:47:25.331Z,12.52
2022-10-25T09:50:01.134Z,12.32
2022-10-25T09:52:36.598Z,12.45
2022-10-25T09:55:22.275Z,12.45
2022-10-25T09:57:50.742Z,12.19
2022-10-25T10:00:19.637Z,12.43
2022-10-25T10:02:48.185Z,12.55
2022-10-25T10:05:20.632Z,12.53
2022-10-25T10:07:50.975Z,12.60
2022-10-25T10:10:22.634Z,12.54
2022-10-25T10:12:55.499Z,12.61
2022-10-25T10:15:28.179Z,12.66
2022-10-25T10:18:21.792Z,12.80
2022-10-25T10:21:09.918Z,12.95
2022-10-25T10:23:46.752Z,12.96
2022-10-25T10:26:22.904Z,13.09
2022-10-25T10:28:54.687Z,13.33
2022-10-25T10:31:23.806Z,13.43
2022-10-25T10:33:53.555Z,13.42
2022-10-25T10:36:26.187Z,13.40
2022-10-25T10:38:55.082Z,13.57
2022-10-25T10:41:26.969Z,13.55
2022-10-25T10:44:10.972Z,13.29
2022-10-25T10:46:44.929Z,13.58
2022-10-25T10:49:14.833Z,13.82
2022-10-25T10:51:47.469Z,13.62
2022-10-25T10:54:30.657Z,13.84
2022-10-25T10:57:01.371Z,13.51
2022-10-25T10:59:35.684Z,13.96
2022-10-25T11:02:23.151Z,13.87
2022-10-25T11:04:53.759Z,13.86
2022-10-25T11:07:31.632Z,13.56
2022-10-25T11:10:26.487Z,13.90
2022-10-25T11:13:23.051Z,13.62
2022-10-25T11:16:21.006Z,13.84
2022-10-25T11:19:00.792Z,13.96
2022-10-25T11:21:45.766Z,13.85
2022-10-25T11:24:29.014Z,13.93
2022-10-25T11:27:05.286Z,13.76
2022-10-25T11:29:54.669Z,13.79
2022-10-25T11:32:47.555Z,13.80
2022-10-25T11:35:35.075Z,13.84
2022-10-25T11:38:06.407Z,13.79
2022-10-25T11:40:41.403Z,13.75
2022-10-25T11:43:30.472Z,13.65
2022-10-25T11:46:01.978Z,13.54
2022-10-25T11:48:47.444Z,13.44
2022-10-25T11:51:28.791Z,13.62
2022-10-25T11:54:14.158Z,13.56
2022-10-25T11:56:56.927Z,13.56
2022-10-25T11:59:35.978Z,13.59
2022-10-25T12:02:21.787Z,13.68
2022-10-25T12:05:01.454Z,13.65
2022-10-25T12:07:36.014Z,13.64
2022-10-25T12:10:16.493Z,13.63
2022-10-25T12:12:51.712Z,13.56
2022-10-25T12:15:24.732Z,13.60
2022-10-25T12:17:53.876Z,13.57
2022-10-25T12:20:26.197Z,13.73
2022-10-25T12:22:58.509Z,13.68
2022-10-25T12:25:30.839Z,13.71
2022-10-25T12:28:07.343Z,13.34
2022-10-25T12:30:36.759Z,13.33
2022-10-25T12:33:16.865Z,13.43
2022-10-25T12:35:51.436Z,13.69
2022-10-25T12:38:27.466Z,13.58
2022-10-25T12:41:02.234Z,13.95
2022-10-25T12:43:37.466Z,13.84
2022-10-25T12:46:25.459Z,13.89
2022-10-25T12:49:42.237Z,13.79
2022-10-25T12:52:29.742Z,13.66
2022-10-25T12:55:24.545Z,13.73
2022-10-25T12:58:02.676Z,13.73
2022-10-25T13:00:40.152Z,13.60
2022-10-25T13:03:55.643Z,13.77
2022-10-25T13:06:39.270Z,13.89
2022-10-25T13:09:11.779Z,13.96
2022-10-25T13:11:43.854Z,13.92
2022-10-25T13:14:24.583Z,13.95
2022-10-25T13:16:54.446Z,13.93
2022-10-25T13:19:49.884Z,14.00
2022-10-25T13:22:39.810Z,14.10
2022-10-25T13:25:19.332Z,14.11
2022-10-25T13:28:26.865Z,14.02
2022-10-25T13:31:31.205Z,13.98
2022-10-25T13:34:36.439Z,13.91
2022-10-25T13:37:07.167Z,13.82
2022-10-25T13:39:40.454Z,13.78
2022-10-25T13:42:24.876Z,13.82
2022-10-25T13:44:56.932Z,13.81
2022-10-25T13:47:36.966Z,13.67
2022-10-25T13:53:01.712Z,13.53
2022-10-25T13:55:36.886Z,13.45
2022-10-25T13:58:45.816Z,13.46
2022-10-25T14:01:59.265Z,13.30
2022-10-25T14:04:41.088Z,13.22
2022-10-25T14:07:52.428Z,13.23
2022-10-25T14:10:27.048Z,13.18
2022-10-25T14:13:07.564Z,13.16
2022-10-25T14:15:44.792Z,13.23
2022-10-25T14:18:18.962Z,12.86
2022-10-25T14:20:49.963Z,13.18
2022-10-25T14:23:23.378Z,13.20
2022-10-25T14:25:55.762Z,13.18
2022-10-25T14:28:26.422Z,13.20
2022-10-25T14:30:58.463Z,13.41
2022-10-25T14:33:29.704Z,13.25
2022-10-25T14:36:08.057Z,13.00
2022-10-25T14:38:39.937Z,13.42
2022-10-25T14:41:14.709Z,13.40
2022-10-25T14:43:43.378Z,13.34
2022-10-25T14:46:16.859Z,13.30
2022-10-25T14:48:47.668Z,13.12
2022-10-25T14:51:21.868Z,13.22
2022-10-25T14:53:54.494Z,13.24
2022-10-25T14:56:27.563Z,13.21
2022-10-25T14:58:57.867Z,13.13
2022-10-25T15:01:28.179Z,13.18
2022-10-25T15:03:59.687Z,13.17
2022-10-25T15:06:32.450Z,12.90
2022-10-25T15:09:40.764Z,13.11
2022-10-25T15:12:17.046Z,13.11
2022-10-25T15:14:47.589Z,13.06
2022-10-25T15:17:26.957Z,13.01
2022-10-25T15:20:00.422Z,13.06
2022-10-25T15:22:30.937Z,12.91
2022-10-25T15:24:59.602Z,13.04
2022-10-25T15:27:35.330Z,12.98
2022-10-25T15:30:05.006Z,12.94
2022-10-25T15:32:35.116Z,12.81
2022-10-25T15:35:04.540Z,12.86
2022-10-25T15:37:32.906Z,12.87
2022-10-25T15:40:01.504Z,12.83
2022-10-25T15:42:30.030Z,12.82
2022-10-25T15:44:58.523Z,12.80
2022-10-25T15:47:34.491Z,12.61
2022-10-25T15:50:14.919Z,12.74
2022-10-25T15:52:43.305Z,12.71
2022-10-25T15:55:19.887Z,12.69
2022-10-25T15:57:48.955Z,12.67
2022-10-25T16:00:24.130Z,12.64
2022-10-25T16:02:56.109Z,12.58
2022-10-25T16:05:27.792Z,12.53
2022-10-25T16:07:56.324Z,12.49
2022-10-25T16:10:27.238Z,12.46
2022-10-25T16:12:59.698Z,12.43
2022-10-25T16:15:28.871Z,12.29
2022-10-25T16:17:57.437Z,12.31
2022-10-25T16:20:29.384Z,12.26
2022-10-25T16:22:58.768Z,12.19
2022-10-25T16:25:32.214Z,12.14
2022-10-25T16:28:02.102Z,12.07
2022-10-25T16:30:36.504Z,11.90
2022-10-25T16:33:06.775Z,11.70
2022-10-25T16:35:36.790Z,11.97
2022-10-25T16:38:07.280Z,11.96
2022-10-25T16:40:36.283Z,11.65
2022-10-25T16:43:05.238Z,11.88
2022-10-25T16:45:37.917Z,11.85
2022-10-25T16:48:07.325Z,11.86
2022-10-25T16:50:37.361Z,11.83
2022-10-25T16:53:08.905Z,11.79
2022-10-25T16:55:37.338Z,11.75
2022-10-25T16:58:05.713Z,11.73
2022-10-25T17:00:36.227Z,11.70
2022-10-25T17:03:06.254Z,11.25
2022-10-25T17:05:35.328Z,11.67
2022-10-25T17:08:06.303Z,11.65
2022-10-25T17:10:35.180Z,11.63
2022-10-25T17:13:03.922Z,11.25
2022-10-25T17:15:33.228Z,11.34
2022-10-25T17:18:01.885Z,11.52
2022-10-25T17:20:30.951Z,11.50
2022-10-25T17:22:59.539Z,11.37
2022-10-25T17:25:29.974Z,11.27
2022-10-25T17:27:58.462Z,11.43
2022-10-25T17:30:27.067Z,11.43
2022-10-25T17:32:55.476Z,11.42
2022-10-25T17:35:28.650Z,11.49
2022-10-25T17:37:58.331Z,11.49
2022-10-25T17:40:28.728Z,11.57
2022-10-25T17:42:56.984Z,11.44
2022-10-25T17:45:25.319Z,9.88
2022-10-25T17:47:53.976Z,11.30
2022-10-25T17:50:22.443Z,11.38
2022-10-25T17:52:52.295Z,11.21
2022-10-25T17:55:20.748Z,11.14
2022-10-25T17:57:52.032Z,11.09
2022-10-25T18:00:20.500Z,11.08
2022-10-25T18:02:50.864Z,11.07
2022-10-25T18:05:21.370Z,11.02
2022-10-25T18:07:50.977Z,10.66
2022-10-25T18:10:19.792Z,10.78
2022-10-25T18:12:50.220Z,10.97
2022-10-25T18:15:19.195Z,10.95
2022-10-25T18:17:48.229Z,10.95
2022-10-25T18:20:17.585Z,10.94
2022-10-25T18:22:46.457Z,10.93
2022-10-25T18:25:14.807Z,10.96
2022-10-25T18:27:43.164Z,10.96
2022-10-25T18:30:14.131Z,10.83
2022-10-25T18:32:42.476Z,10.93
2022-10-25T18:35:11.600Z,10.99
2022-10-25T18:37:40.219Z,10.86
2022-10-25T18:40:10.296Z,10.95
2022-10-25T18:42:39.178Z,10.91
2022-10-25T18:45:08.322Z,10.92
2022-10-25T18:47:38.355Z,10.91
2022-10-25T18:50:07.787Z,10.86
2022-10-25T18:52:36.118Z,10.81
2022-10-25T18:55:04.676Z,10.80
2022-10-25T18:57:33.232Z,9.17
2022-10-25T19:00:02.034Z,10.73
2022-10-25T19:02:34.120Z,10.70
2022-10-25T19:07:40.738Z,10.48
2022-10-25T19:10:09.794Z,10.54
2022-10-25T19:12:38.055Z,10.52
2022-10-25T19:15:07.535Z,10.40
2022-10-25T19:17:35.972Z,10.48
2022-10-25T19:20:04.766Z,10.14
2022-10-25T19:22:34.516Z,10.48
2022-10-25T19:25:02.879Z,10.27
2022-10-25T19:27:31.169Z,10.32
2022-10-25T19:29:59.474Z,10.38
2022-10-25T19:32:27.862Z,10.37
2022-10-25T19:34:56.181Z,10.35
2022-10-25T19:37:24.744Z,10.32
2022-10-25T19:39:56.845Z,10.29
2022-10-25T19:42:27.350Z,10.29
2022-10-25T19:44:55.803Z,10.14
2022-10-25T19:47:24.280Z,10.22
2022-10-25T19:49:52.671Z,10.18
2022-10-25T19:52:21.180Z,10.15
2022-10-25T19:54:50.088Z,10.11
2022-10-25T19:57:19.900Z,10.08
2022-10-25T19:59:48.253Z,10.06
2022-10-25T20:02:16.723Z,10.02
2022-10-25T20:04:45.299Z,9.60
2022-10-25T20:07:13.760Z,9.93
2022-10-25T20:09:42.352Z,9.68
2022-10-25T20:12:10.904Z,9.90
2022-10-25T20:14:40.754Z,9.87
2022-10-25T20:17:09.131Z,9.83
2022-10-25T20:19:37.522Z,9.79
2022-10-25T20:22:06.374Z,9.76
2022-10-25T20:24:34.712Z,9.72
2022-10-25T20:27:03.543Z,9.68
2022-10-25T20:29:32.559Z,9.62
2022-10-25T20:32:02.428Z,9.57
2022-10-25T20:34:30.867Z,9.57
2022-10-25T20:36:59.240Z,9.25
2022-10-25T20:39:27.890Z,9.52
2022-10-25T20:41:56.232Z,9.44
2022-10-25T20:44:24.630Z,9.38
2022-10-25T20:46:53.117Z,9.33
2022-10-25T20:49:23.083Z,9.33
2022-10-25T20:51:51.722Z,9.29
2022-10-25T20:54:20.479Z,9.27
2022-10-25T20:56:48.790Z,8.98
2022-10-25T20:59:17.243Z,9.16
2022-10-25T21:01:46.170Z,9.12
2022-10-25T21:04:21.822Z,9.08
2022-10-25T21:07:01.305Z,9.01
2022-10-25T21:09:29.689Z,8.97
2022-10-25T21:11:57.995Z,8.97
2022-10-25T21:14:26.456Z,8.52
2022-10-25T21:16:55.491Z,9.00
2022-10-25T21:19:24.007Z,8.76
2022-10-25T21:21:52.445Z,8.85
2022-10-25T21:24:22.557Z,8.86
2022-10-25T21:26:51.779Z,8.86
2022-10-25T21:29:20.124Z,8.84
2022-10-25T21:31:49.563Z,8.79
2022-10-25T21:36:51.170Z,8.71
2022-10-25T21:39:24.064Z,8.71
2022-10-25T21:41:54.974Z,8.27
2022-10-25T21:44:23.666Z,8.65
2022-10-25T21:46:52.036Z,8.60
2022-10-25T21:49:20.774Z,8.31
2022-10-25T21:51:49.131Z,8.59
2022-10-25T21:54:17.546Z,8.56
2022-10-25T21:56:45.878Z,8.43
2022-10-25T21:59:15.687Z,8.45
2022-10-25T22:01:44.104Z,8.56
2022-10-25T22:04:12.587Z,8.50
2022-10-25T22:06:40.931Z,8.48
2022-10-25T22:09:10.023Z,8.43
2022-10-25T22:11:41.177Z,8.38
2022-10-25T22:14:12.147Z,8.33
2022-10-25T22:16:42.077Z,8.33
2022-10-25T22:19:15.996Z,8.32
2022-10-25T22:21:45.503Z,8.02
2022-10-25T22:24:14.527Z,8.22
2022-10-25T22:26:45.277Z,8.20
2022-10-25T22:29:15.341Z,8.17
2022-10-25T22:31:45.103Z,8.17
2022-10-25T22:34:13.504Z,8.15
2022-10-25T22:36:43.154Z,8.17
2022-10-25T22:39:11.676Z,7.65
2022-10-25T22:41:40.032Z,8.14
2022-10-25T22:44:08.454Z,8.12
2022-10-25T22:46:37.679Z,8.10
2022-10-25T22:49:09.965Z,8.05
2022-10-25T22:51:39.919Z,8.04
2022-10-25T22:54:08.747Z,8.03
2022-10-25T22:56:37.231Z,8.00
2022-10-25T22:59:07.391Z,7.98
2022-10-25T23:01:37.965Z,7.37
2022-10-25T23:04:10.190Z,7.92
2022-10-25T23:06:40.845Z,7.80
2022-10-25T23:09:11.882Z,7.86
2022-10-25T23:11:42.264Z,7.87
2022-10-25T23:14:14.936Z,7.86
2022-10-25T23:16:45.913Z,7.46
2022-10-25T23:19:15.989Z,7.63
2022-10-25T23:21:44.674Z,7.89
2022-10-25T23:24:12.997Z,7.89
2022-10-25T23:26:42.926Z,7.89
2022-10-25T23:29:13.254Z,7.89
2022-10-25T23:31:41.640Z,7.45
2022-10-25T23:34:11.013Z,7.88
2022-10-25T23:36:40.762Z,7.85
2022-10-25T23:39:09.543Z,7.56
2022-10-25T23:41:38.558Z,7.85
2022-10-25T23:44:06.945Z,7.86
2022-10-25T23:46:35.684Z,7.88
2022-10-25T23:49:04.018Z,7.69
2022-10-25T23:51:32.426Z,7.68
2022-10-25T23:54:04.007Z,7.81
2022-10-25T23:56:33.216Z,7.77
2022-10-25T23:59:01.972Z,7.74
